Terminal Aerodrome Forecast
Issued by NWS

Home | Current Version | Previous Version | Text Only | Print | Product List | Glossary On
Versions: 1 2 3 4 5 6 7 8 9 10 11 12 13 14 15 16 17 18 19 20 21 22 23 24 25 26 27 28 29
000
FTUS45 KGJT 050542
TAFEGE
TAF
KEGE 050542Z 0506/0606 23004KT P6SM SCT120 OVC200
     FM050800 24009KT P6SM VCSH BKN060 OVC120
      TEMPO 0508/0510 -SHRA OVC060
     FM051000 VRB03KT P6SM SCT060 BKN150
     FM051900 21008KT P6SM SCT080
     FM060200 16005KT P6SM SCT120
      AMD LTD TO CLD VIS AND WIND TIL 051300=

USA.gov is the U.S. government's official web portal to all federal, state and local government web resources and services.